KQA304 HKJK-OMDB
Flight info
| Callsign | KQA304 |
|---|---|
| Flight time | N/A |
| Altitude | 31000 |
| Route | ATUDU1D WAV UP312 MAV/N0477F330 UB403 BOMIX B403 RIGAM B400 NODMA/N0474F350 B400 DAXAM Y414 DEDSO R401 VELIK/N0476F340 R401 MUSAP/N0414F210 R401 PEDOG Q308 KIPOK Q568 IMPED |
| Aircraft | B738/M-SDE2E3FGHIRWXY/LB1 |
Departure
| Time | 2026-04-29 13:28 |
|---|---|
| Airport | Jomo Kenyatta International Airport (HKJK) |
Arrival
| Time | N/A |
|---|---|
| Airport | Dubai International Airport (OMDB) |
| Time | Latitude | Longitude | Altitude | Speed | Heading |
|---|---|---|---|---|---|
| 2026-04-29 13:06 | -1.32956 | 36.92345 | 5315 ft | 0 kts | 121° |
| 2026-04-29 13:14 | -1.32956 | 36.92344 | 5315 ft | 0 kts | 121° |
| 2026-04-29 13:14 | -1.32955 | 36.92342 | 5315 ft | 1 kts | 115° |
| 2026-04-29 13:15 | -1.32953 | 36.92337 | 5315 ft | 2 kts | 98° |
| 2026-04-29 13:15 | -1.32951 | 36.92329 | 5315 ft | 2 kts | 122° |
| 2026-04-29 13:15 | -1.32947 | 36.92323 | 5315 ft | 2 kts | 127° |
| 2026-04-29 13:15 | -1.32942 | 36.92316 | 5315 ft | 2 kts | 127° |
| 2026-04-29 13:16 | -1.32937 | 36.92310 | 5315 ft | 2 kts | 138° |
| 2026-04-29 13:16 | -1.32930 | 36.92305 | 5315 ft | 2 kts | 146° |
| 2026-04-29 13:16 | -1.32924 | 36.92301 | 5315 ft | 2 kts | 153° |
| 2026-04-29 13:16 | -1.32916 | 36.92297 | 5316 ft | 2 kts | 161° |
| 2026-04-29 13:17 | -1.32907 | 36.92295 | 5316 ft | 2 kts | 169° |
| 2026-04-29 13:17 | -1.32899 | 36.92294 | 5316 ft | 2 kts | 177° |
| 2026-04-29 13:17 | -1.32891 | 36.92293 | 5316 ft | 2 kts | 184° |
| 2026-04-29 13:17 | -1.32884 | 36.92294 | 5316 ft | 2 kts | 192° |
| 2026-04-29 13:18 | -1.32877 | 36.92296 | 5316 ft | 2 kts | 198° |
| 2026-04-29 13:18 | -1.32870 | 36.92299 | 5316 ft | 2 kts | 205° |
| 2026-04-29 13:18 | -1.32864 | 36.92302 | 5317 ft | 2 kts | 211° |
| 2026-04-29 13:18 | -1.32859 | 36.92305 | 5317 ft | 2 kts | 217° |
| 2026-04-29 13:19 | -1.32855 | 36.92308 | 5317 ft | 1 kts | 221° |
| 2026-04-29 13:19 | -1.32854 | 36.92309 | 5317 ft | 1 kts | 223° |
| 2026-04-29 13:19 | -1.32851 | 36.92312 | 5317 ft | 1 kts | 224° |
| 2026-04-29 13:19 | -1.32850 | 36.92313 | 5317 ft | 0 kts | 224° |
| 2026-04-29 13:21 | -1.32857 | 36.92306 | 5317 ft | 7 kts | 229° |
| 2026-04-29 13:21 | -1.32864 | 36.92279 | 5317 ft | 14 kts | 274° |
| 2026-04-29 13:21 | -1.32842 | 36.92236 | 5317 ft | 20 kts | 317° |
| 2026-04-29 13:22 | -1.32804 | 36.92182 | 5317 ft | 24 kts | 281° |
| 2026-04-29 13:22 | -1.32830 | 36.92111 | 5318 ft | 28 kts | 231° |
| 2026-04-29 13:22 | -1.32884 | 36.92039 | 5320 ft | 29 kts | 233° |
| 2026-04-29 13:22 | -1.32936 | 36.91966 | 5321 ft | 30 kts | 235° |
| 2026-04-29 13:23 | -1.32984 | 36.91896 | 5323 ft | 30 kts | 241° |
| 2026-04-29 13:23 | -1.32993 | 36.91831 | 5324 ft | 19 kts | 309° |
| 2026-04-29 13:23 | -1.32954 | 36.91790 | 5325 ft | 19 kts | 315° |
| 2026-04-29 13:23 | -1.32912 | 36.91753 | 5325 ft | 20 kts | 319° |
| 2026-04-29 13:24 | -1.32865 | 36.91709 | 5326 ft | 20 kts | 316° |
| 2026-04-29 13:24 | -1.32817 | 36.91677 | 5326 ft | 19 kts | 342° |
| 2026-04-29 13:24 | -1.32761 | 36.91671 | 5325 ft | 20 kts | 13° |
| 2026-04-29 13:24 | -1.32714 | 36.91706 | 5324 ft | 21 kts | 52° |
| 2026-04-29 13:25 | -1.32673 | 36.91762 | 5322 ft | 28 kts | 54° |
| 2026-04-29 13:25 | -1.32509 | 36.91988 | 5318 ft | 72 kts | 54° |
| 2026-04-29 13:25 | -1.32306 | 36.92268 | 5317 ft | 101 kts | 54° |
| 2026-04-29 13:26 | -1.32001 | 36.92688 | 5318 ft | 138 kts | 54° |
| 2026-04-29 13:26 | -1.31615 | 36.93220 | 5315 ft | 173 kts | 54° |
| 2026-04-29 13:26 | -1.31198 | 36.93795 | 5501 ft | 188 kts | 54° |
| 2026-04-29 13:26 | -1.30769 | 36.94377 | 5770 ft | 196 kts | 53° |
| 2026-04-29 13:27 | -1.30432 | 36.94868 | 5849 ft | 204 kts | 61° |
| 2026-04-29 13:27 | -1.30175 | 36.95466 | 5798 ft | 228 kts | 74° |
| 2026-04-29 13:27 | -1.30039 | 36.96152 | 5841 ft | 247 kts | 84° |
| 2026-04-29 13:27 | -1.30005 | 36.97159 | 5913 ft | 273 kts | 88° |
| 2026-04-29 13:28 | -1.29918 | 36.98456 | 6621 ft | 278 kts | 84° |
| 2026-04-29 13:28 | -1.29774 | 36.99862 | 7567 ft | 277 kts | 83° |
| 2026-04-29 13:28 | -1.29563 | 37.01632 | 8485 ft | 285 kts | 83° |
| 2026-04-29 13:28 | -1.29379 | 37.03119 | 9312 ft | 288 kts | 83° |
| 2026-04-29 13:29 | -1.29207 | 37.04507 | 10036 ft | 291 kts | 83° |
| 2026-04-29 13:29 | -1.28939 | 37.06654 | 10535 ft | 318 kts | 83° |
| 2026-04-29 13:29 | -1.28659 | 37.08904 | 10902 ft | 344 kts | 83° |
| 2026-04-29 13:29 | -1.28531 | 37.09934 | 11501 ft | 342 kts | 83° |
| 2026-04-29 13:30 | -1.28384 | 37.11114 | 12043 ft | 343 kts | 83° |
| 2026-04-29 13:30 | -1.28158 | 37.12693 | 12576 ft | 350 kts | 78° |
| 2026-04-29 13:30 | -1.28077 | 37.13040 | 12696 ft | 352 kts | 75° |
| 2026-04-29 13:30 | -1.28038 | 37.13190 | 12751 ft | 352 kts | 75° |
| 2026-04-29 13:31 | -1.28012 | 37.13284 | 12788 ft | 352 kts | 74° |
| 2026-04-29 13:31 | -1.27881 | 37.13737 | 12986 ft | 353 kts | 73° |
| 2026-04-29 13:31 | -1.27674 | 37.14455 | 13330 ft | 353 kts | 74° |
| 2026-04-29 13:31 | -1.27441 | 37.15226 | 13661 ft | 353 kts | 71° |
| 2026-04-29 13:32 | -1.27165 | 37.15928 | 13908 ft | 356 kts | 66° |
| 2026-04-29 13:32 | -1.26260 | 37.17469 | 14537 ft | 360 kts | 53° |
| 2026-04-29 13:32 | -1.25371 | 37.18492 | 15064 ft | 362 kts | 45° |
| 2026-04-29 13:32 | -1.24840 | 37.18980 | 15299 ft | 364 kts | 40° |
| 2026-04-29 13:33 | -1.24379 | 37.19347 | 15483 ft | 365 kts | 36° |
| 2026-04-29 13:33 | -1.23913 | 37.19670 | 15667 ft | 366 kts | 33° |
| 2026-04-29 13:33 | -1.23488 | 37.19933 | 15841 ft | 367 kts | 31° |
| 2026-04-29 13:33 | -1.23147 | 37.20139 | 15989 ft | 367 kts | 32° |
| 2026-04-29 13:34 | -1.22757 | 37.20393 | 16155 ft | 368 kts | 34° |
| 2026-04-29 13:34 | -1.22406 | 37.20649 | 16290 ft | 369 kts | 37° |
| 2026-04-29 13:34 | -1.21786 | 37.21174 | 16524 ft | 371 kts | 43° |
| 2026-04-29 13:34 | -1.21352 | 37.21590 | 16715 ft | 372 kts | 44° |
| 2026-04-29 13:35 | -1.21009 | 37.21928 | 16886 ft | 372 kts | 44° |
| 2026-04-29 13:35 | -1.20598 | 37.22331 | 17092 ft | 373 kts | 44° |
| 2026-04-29 13:35 | -1.19967 | 37.22944 | 17383 ft | 374 kts | 44° |
| 2026-04-29 13:35 | -1.19532 | 37.23367 | 17561 ft | 375 kts | 44° |
| 2026-04-29 13:36 | -1.19083 | 37.23804 | 17733 ft | 377 kts | 44° |
| 2026-04-29 13:36 | -1.18670 | 37.24206 | 17895 ft | 378 kts | 44° |
| 2026-04-29 13:36 | -1.18381 | 37.24487 | 18015 ft | 379 kts | 44° |
| 2026-04-29 13:36 | -1.17832 | 37.25018 | 18255 ft | 380 kts | 44° |
| 2026-04-29 13:37 | -1.17207 | 37.25625 | 18531 ft | 381 kts | 44° |
| 2026-04-29 13:37 | -1.16668 | 37.26147 | 18752 ft | 382 kts | 44° |
| 2026-04-29 13:37 | -1.15961 | 37.26831 | 19023 ft | 384 kts | 44° |
| 2026-04-29 13:37 | -1.14543 | 37.28204 | 19581 ft | 387 kts | 44° |
| 2026-04-29 13:38 | -1.13154 | 37.29550 | 20114 ft | 390 kts | 44° |
| 2026-04-29 13:38 | -1.11930 | 37.30736 | 20560 ft | 393 kts | 44° |
| 2026-04-29 13:38 | -1.10927 | 37.31706 | 20929 ft | 395 kts | 44° |
| 2026-04-29 13:38 | -1.10032 | 37.32573 | 21246 ft | 397 kts | 44° |
| 2026-04-29 13:39 | -1.08833 | 37.33734 | 21657 ft | 400 kts | 44° |
| 2026-04-29 13:39 | -1.07988 | 37.34553 | 21947 ft | 401 kts | 44° |
| 2026-04-29 13:39 | -1.07460 | 37.35064 | 22125 ft | 402 kts | 44° |
| 2026-04-29 13:39 | -1.07052 | 37.35460 | 22261 ft | 403 kts | 44° |
| 2026-04-29 13:40 | -1.06434 | 37.36058 | 22462 ft | 404 kts | 44° |
| 2026-04-29 13:40 | -1.05308 | 37.37148 | 22825 ft | 406 kts | 44° |
| 2026-04-29 13:40 | -1.04230 | 37.38192 | 23167 ft | 409 kts | 44° |
| 2026-04-29 13:40 | -1.03079 | 37.39307 | 23523 ft | 411 kts | 44° |
| 2026-04-29 13:41 | -1.01777 | 37.40568 | 23916 ft | 413 kts | 44° |
| 2026-04-29 13:41 | -1.00619 | 37.41689 | 24262 ft | 415 kts | 44° |
| 2026-04-29 13:41 | -0.99401 | 37.42869 | 24619 ft | 417 kts | 44° |
| 2026-04-29 13:41 | -0.98029 | 37.44196 | 25020 ft | 419 kts | 44° |
| 2026-04-29 13:42 | -0.96847 | 37.45341 | 25345 ft | 421 kts | 44° |
| 2026-04-29 13:42 | -0.95596 | 37.46553 | 25680 ft | 424 kts | 44° |
| 2026-04-29 13:42 | -0.94352 | 37.47758 | 26015 ft | 426 kts | 44° |
| 2026-04-29 13:42 | -0.93115 | 37.48955 | 26331 ft | 428 kts | 44° |
| 2026-04-29 13:43 | -0.91780 | 37.50247 | 26668 ft | 430 kts | 44° |
| 2026-04-29 13:43 | -0.90388 | 37.51595 | 27021 ft | 432 kts | 44° |
| 2026-04-29 13:43 | -0.89530 | 37.52426 | 27226 ft | 434 kts | 44° |
| 2026-04-29 13:43 | -0.88822 | 37.53112 | 27403 ft | 435 kts | 44° |
| 2026-04-29 13:44 | -0.87683 | 37.54214 | 27668 ft | 437 kts | 44° |
| 2026-04-29 13:44 | -0.87043 | 37.54834 | 27824 ft | 438 kts | 44° |